Time;durP1;ratioP1;P1;durP2;ratioP2;P2;SDS_P1;SDS_P2;PMS_P1;PMS_P2;Temp;Humidity;BMP_temperature;BMP_pressure;BME280_temperature;BME280_humidity;BME280_pressure;Samples;Min_cycle;Max_cycle;Signal;HPM_P1;HPM_P2
2022/05/09 00:00:32;;;;;;;3.22;1.33;;;18.20;52.40;;;;;;10431816;28;20043;-56
2022/05/09 00:05:32;;;;;;;4.53;1.77;;;18.20;52.40;;;;;;10416679;28;20038;-56
2022/05/09 00:10:33;;;;;;;5.28;1.67;;;18.20;52.40;;;;;;10416235;28;20041;-54
2022/05/09 00:15:34;;;;;;;4.68;1.73;;;18.20;52.50;;;;;;10416279;28;20075;-56
2022/05/09 00:20:35;;;;;;;2.78;1.60;;;18.20;52.50;;;;;;10415604;28;20088;-54
2022/05/09 00:25:35;;;;;;;3.72;2.08;;;18.10;52.50;;;;;;10401250;28;20112;-55
2022/05/09 00:30:36;;;;;;;2.55;1.30;;;18.20;52.50;;;;;;10415104;28;20037;-57
2022/05/09 00:35:37;;;;;;;5.32;1.38;;;18.20;52.60;;;;;;10415637;28;20034;-56
2022/05/09 00:46:02;;;;;;;2.40;1.30;;;18.20;52.70;;;;;;10415221;28;20025;-56
2022/05/09 00:51:04;;;;;;;3.40;1.35;;;18.10;52.70;;;;;;10409688;28;20038;-55
2022/05/09 00:56:13;;;;;;;2.75;1.23;;;18.10;52.70;;;;;;10411872;28;20028;-56
2022/05/09 01:01:14;;;;;;;2.90;1.73;;;18.10;52.70;;;;;;10429140;28;20112;-55
2022/05/09 01:06:15;;;;;;;2.92;1.63;;;18.10;52.70;;;;;;10414390;28;20374;-55
2022/05/09 01:11:21;;;;;;;3.40;1.88;;;18.10;52.80;;;;;;10413821;28;20043;-56
2022/05/09 01:16:23;;;;;;;3.92;1.77;;;18.10;52.70;;;;;;10429144;28;20036;-57
2022/05/09 01:21:37;;;;;;;3.10;1.77;;;18.10;52.70;;;;;;10407201;28;20097;-55
2022/05/09 01:26:37;;;;;;;3.13;1.45;;;18.10;52.80;;;;;;10405756;28;20258;-56
2022/05/09 01:31:41;;;;;;;3.13;1.50;;;18.00;52.80;;;;;;10411306;28;20401;-56
2022/05/09 01:36:42;;;;;;;6.03;2.05;;;18.00;52.80;;;;;;10398699;28;20380;-56
2022/05/09 01:41:47;;;;;;;3.17;1.75;;;18.00;52.80;;;;;;10413206;28;20470;-56
2022/05/09 01:52:09;;;;;;;2.67;1.17;;;18.00;52.90;;;;;;10403316;28;20041;-54
2022/05/09 01:57:11;;;;;;;2.28;1.02;;;18.00;52.90;;;;;;10412885;28;20280;-56
2022/05/09 02:02:19;;;;;;;3.13;1.83;;;18.00;52.90;;;;;;10413027;28;20018;-55
2022/05/09 02:07:23;;;;;;;3.38;1.92;;;18.00;52.90;;;;;;10427786;28;20056;-56
2022/05/09 02:12:24;;;;;;;3.05;1.70;;;17.90;52.90;;;;;;10412744;28;20017;-55
2022/05/09 02:17:25;;;;;;;2.45;1.50;;;17.90;52.90;;;;;;10412639;28;20110;-57
2022/05/09 02:22:26;;;;;;;4.45;1.73;;;17.90;52.90;;;;;;10398998;28;20490;-55
2022/05/09 02:27:27;;;;;;;2.67;1.60;;;17.90;52.90;;;;;;10412274;28;20104;-54
2022/05/09 02:32:28;;;;;;;2.47;1.23;;;17.90;53.00;;;;;;10410886;28;20107;-56
2022/05/09 02:37:29;;;;;;;3.08;1.45;;;17.90;53.00;;;;;;10412115;28;20433;-56
2022/05/09 02:42:29;;;;;;;2.92;1.45;;;17.90;53.00;;;;;;10412738;28;20098;-54
2022/05/09 02:47:30;;;;;;;4.30;1.65;;;17.90;53.00;;;;;;10418175;28;20061;-56
2022/05/09 02:52:31;;;;;;;2.85;1.65;;;17.90;53.00;;;;;;10408356;28;20045;-56
2022/05/09 02:57:32;;;;;;;3.25;1.40;;;17.90;53.10;;;;;;10419265;28;20136;-54
2022/05/09 03:02:33;;;;;;;3.30;1.60;;;17.90;53.10;;;;;;10419126;28;20667;-56
2022/05/09 03:07:34;;;;;;;3.65;1.38;;;17.80;53.10;;;;;;10433837;28;20041;-56
2022/05/09 03:12:35;;;;;;;2.28;1.90;;;17.80;53.10;;;;;;10418746;28;20386;-56
2022/05/09 03:17:35;;;;;;;2.90;1.70;;;17.80;53.10;;;;;;10418362;28;20033;-55
2022/05/09 03:22:37;;;;;;;2.63;1.60;;;17.80;53.20;;;;;;10418285;28;20425;-56
2022/05/09 03:27:38;;;;;;;3.33;1.90;;;17.80;53.20;;;;;;10418110;28;20394;-55
2022/05/09 03:32:39;;;;;;;3.25;1.67;;;17.80;53.20;;;;;;10417867;28;20065;-57
2022/05/09 03:37:40;;;;;;;2.95;1.45;;;17.80;53.10;;;;;;10417589;28;20033;-56
2022/05/09 03:42:41;;;;;;;4.38;2.20;;;17.80;53.20;;;;;;10432319;28;20034;-58
2022/05/09 03:47:42;;;;;;;4.43;1.50;;;17.70;53.10;;;;;;10414380;28;20037;-58
2022/05/09 03:52:43;;;;;;;3.60;2.40;;;17.70;53.20;;;;;;10406816;28;20034;-55
2022/05/09 03:57:56;;;;;;;2.80;1.60;;;17.70;53.10;;;;;;10415120;28;20483;-56
2022/05/09 04:02:57;;;;;;;3.50;1.55;;;17.70;53.20;;;;;;10415612;28;20037;-54
2022/05/09 04:08:00;;;;;;;3.53;2.05;;;17.70;53.30;;;;;;10416416;28;20073;-55
2022/05/09 04:13:01;;;;;;;2.70;2.13;;;17.70;53.50;;;;;;10416346;28;20099;-55
2022/05/09 04:18:03;;;;;;;6.05;2.08;;;17.70;53.70;;;;;;10414807;28;20034;-55
2022/05/09 04:23:06;;;;;;;3.60;2.05;;;17.70;54.00;;;;;;10401379;28;20119;-57
2022/05/09 04:28:08;;;;;;;4.97;2.63;;;17.70;54.40;;;;;;10430735;28;20485;-55
2022/05/09 04:33:09;;;;;;;4.40;3.40;;;17.70;54.40;;;;;;10415242;28;20361;-55
2022/05/09 04:38:23;;;;;;;6.75;3.67;;;17.70;54.60;;;;;;10412997;28;20099;-56
2022/05/09 04:43:31;;;;;;;6.43;3.80;;;17.70;55.00;;;;;;10409150;28;20040;-58
2022/05/09 04:48:32;;;;;;;7.80;2.60;;;17.70;56.10;;;;;;10414244;28;20045;-58
2022/05/09 04:53:33;;;;;;;10.23;2.85;;;17.80;56.30;;;;;;10412321;28;20025;-57
2022/05/09 04:58:33;;;;;;;7.90;2.80;;;17.90;55.60;;;;;;10411579;28;20037;-59
2022/05/09 05:03:35;;;;;;;8.68;3.05;;;17.90;56.50;;;;;;10412684;28;20068;-54
2022/05/09 05:08:35;;;;;;;8.30;3.03;;;18.00;56.80;;;;;;10413436;28;20041;-56
2022/05/09 05:13:36;;;;;;;8.45;2.88;;;18.10;56.40;;;;;;10413952;28;20426;-56
2022/05/09 05:18:37;;;;;;;10.48;3.80;;;18.00;58.00;;;;;;10412356;28;20030;-57
2022/05/09 05:23:38;;;;;;;9.80;3.47;;;18.00;57.30;;;;;;10412889;28;20427;-54
2022/05/09 05:28:39;;;;;;;11.27;3.38;;;18.00;56.90;;;;;;10405001;28;21757;-57
2022/05/09 05:33:39;;;;;;;7.07;3.28;;;18.00;57.30;;;;;;10412111;28;20440;-56
2022/05/09 05:38:40;;;;;;;8.30;2.92;;;17.90;55.70;;;;;;10410252;28;20031;-53
2022/05/09 05:43:41;;;;;;;10.18;4.43;;;17.90;55.80;;;;;;10413046;28;20446;-56
2022/05/09 05:48:41;;;;;;;26.00;5.07;;;17.90;55.90;;;;;;10411708;28;20477;-55
2022/05/09 05:53:42;;;;;;;18.00;4.88;;;17.90;56.40;;;;;;10408744;28;20069;-56
2022/05/09 05:58:43;;;;;;;19.63;5.07;;;17.90;55.90;;;;;;10388275;28;20068;-55
2022/05/09 06:03:43;;;;;;;22.38;4.13;;;17.90;57.10;;;;;;10427093;28;20052;-55
2022/05/09 06:08:45;;;;;;;10.32;3.78;;;17.90;57.40;;;;;;10411596;28;20497;-54
2022/05/09 06:13:46;;;;;;;19.45;4.45;;;17.90;56.60;;;;;;10410300;28;20038;-50
2022/05/09 06:18:51;;;;;;;12.18;3.30;;;17.80;56.30;;;;;;10426354;28;20053;-50
2022/05/09 06:23:52;;;;;;;10.75;3.17;;;17.80;56.20;;;;;;10416911;28;20044;-48
2022/05/09 06:28:53;;;;;;;13.30;3.55;;;17.80;56.30;;;;;;10419550;28;20081;-50
2022/05/09 06:33:53;;;;;;;7.93;2.42;;;17.70;56.30;;;;;;10419668;28;20065;-50
2022/05/09 06:38:56;;;;;;;7.43;3.70;;;17.70;56.20;;;;;;10419741;28;20111;-49
2022/05/09 06:43:57;;;;;;;9.50;2.92;;;17.70;56.30;;;;;;10434979;28;20049;-51
2022/05/09 06:48:58;;;;;;;9.77;3.03;;;17.70;56.90;;;;;;10416120;28;20136;-54
2022/05/09 06:53:58;;;;;;;10.93;2.92;;;17.70;56.00;;;;;;10415550;28;20083;-51
2022/05/09 06:58:59;;;;;;;10.50;3.53;;;17.70;56.00;;;;;;10417766;28;20512;-52
2022/05/09 07:04:00;;;;;;;8.50;2.55;;;17.80;55.90;;;;;;10417675;28;20107;-54
2022/05/09 07:09:01;;;;;;;15.02;3.83;;;17.80;55.90;;;;;;10417044;28;20064;-55
2022/05/09 07:14:02;;;;;;;11.77;3.60;;;17.70;55.90;;;;;;10424331;28;20037;-53
2022/05/09 07:19:04;;;;;;;10.20;2.97;;;17.80;55.90;;;;;;10416604;28;20021;-52
2022/05/09 07:24:06;;;;;;;10.40;3.83;;;17.80;55.80;;;;;;10415831;28;20393;-51
2022/05/09 07:29:09;;;;;;;12.75;3.72;;;17.80;55.80;;;;;;10407872;28;20042;-53
2022/05/09 07:34:10;;;;;;;11.68;3.95;;;17.90;55.90;;;;;;10407010;28;20485;-52
2022/05/09 07:39:10;;;;;;;13.23;3.00;;;17.90;55.90;;;;;;10415095;28;20084;-54
2022/05/09 07:44:11;;;;;;;6.82;2.95;;;17.90;56.00;;;;;;10415521;28;20578;-53
2022/05/09 07:49:12;;;;;;;9.10;3.03;;;17.90;55.90;;;;;;10415440;28;20086;-56
2022/05/09 07:54:13;;;;;;;8.85;2.83;;;18.00;55.90;;;;;;10416110;28;20026;-55
2022/05/09 07:59:13;;;;;;;5.25;3.30;;;17.90;55.90;;;;;;10416650;28;20101;-52
2022/05/09 08:04:14;;;;;;;9.60;3.67;;;17.90;55.90;;;;;;10416266;28;20112;-54
2022/05/09 08:09:15;;;;;;;6.47;2.78;;;18.00;55.90;;;;;;10416098;28;20444;-51
2022/05/09 08:14:16;;;;;;;6.93;3.08;;;18.00;55.90;;;;;;10414560;28;20029;-54
2022/05/09 08:19:17;;;;;;;6.47;2.55;;;18.00;56.00;;;;;;10431108;28;20018;-53
2022/05/09 08:24:18;;;;;;;7.22;3.70;;;18.00;56.20;;;;;;10415665;28;20025;-56
2022/05/09 08:29:19;;;;;;;12.00;3.70;;;18.00;55.90;;;;;;10415623;28;20045;-51
2022/05/09 08:34:20;;;;;;;16.75;3.33;;;18.00;55.90;;;;;;10412884;28;20060;-50
2022/05/09 08:39:22;;;;;;;8.88;2.85;;;18.00;56.10;;;;;;10405866;28;20112;-50
2022/05/09 08:45:04;;;;;;;12.43;3.45;;;18.00;56.20;;;;;;10429331;28;20029;-53
2022/05/09 08:50:29;;;;;;;13.35;3.70;;;18.10;56.00;;;;;;10412935;28;20026;-49
2022/05/09 08:55:38;;;;;;;8.52;2.88;;;18.10;55.10;;;;;;10396452;28;20033;-56
2022/05/09 09:00:38;;;;;;;8.87;3.00;;;18.20;54.90;;;;;;10422820;28;20037;-53
2022/05/09 09:05:46;;;;;;;9.90;3.45;;;18.10;55.20;;;;;;10401407;28;20033;-53
2022/05/09 09:11:02;;;;;;;9.15;3.42;;;18.20;55.30;;;;;;10413387;28;20030;-53
2022/05/09 09:16:28;;;;;;;8.13;3.03;;;18.10;55.20;;;;;;10412108;28;20036;-52
2022/05/09 09:21:59;;;;;;;4.03;2.30;;;18.20;55.60;;;;;;10427685;28;20045;-54
2022/05/09 09:27:09;;;;;;;10.57;4.07;;;18.20;55.40;;;;;;10411484;28;20033;-54
2022/05/09 09:32:18;;;;;;;6.75;2.42;;;18.20;55.60;;;;;;10411978;28;20477;-54
2022/05/09 09:37:24;;;;;;;6.63;3.22;;;18.20;55.70;;;;;;10412052;28;20029;-54
2022/05/09 09:42:25;;;;;;;6.75;2.80;;;18.20;56.00;;;;;;10411563;28;20036;-55
2022/05/09 09:47:27;;;;;;;6.80;2.42;;;18.20;55.80;;;;;;10412654;28;20405;-53
2022/05/09 09:52:53;;;;;;;5.57;2.65;;;18.20;55.70;;;;;;10416711;28;20041;-52
2022/05/09 09:57:57;;;;;;;5.13;2.42;;;18.20;55.40;;;;;;10412649;28;20038;-53
2022/05/09 10:03:27;;;;;;;3.97;2.22;;;18.30;55.50;;;;;;10410824;28;20091;-53
2022/05/09 10:08:38;;;;;;;3.95;2.25;;;18.30;55.50;;;;;;10411490;28;20029;-53
2022/05/09 10:13:45;;;;;;;9.48;3.05;;;18.30;56.10;;;;;;10409305;28;20417;-53
2022/05/09 10:18:46;;;;;;;8.98;2.42;;;18.30;55.80;;;;;;10411825;28;20048;-54
2022/05/09 10:29:17;;;;;;;5.90;2.22;;;18.30;55.90;;;;;;10411398;28;20057;-54
2022/05/09 10:34:26;;;;;;;5.88;2.35;;;18.40;55.50;;;;;;10410176;28;20482;-48
2022/05/09 10:39:36;;;;;;;6.93;2.75;;;18.40;55.90;;;;;;10409858;28;20401;-48
2022/05/09 10:44:52;;;;;;;6.78;2.03;;;18.40;55.50;;;;;;10408069;28;20138;-50
2022/05/09 10:50:15;;;;;;;5.70;2.63;;;18.50;55.70;;;;;;10407560;28;20179;-50
2022/05/09 10:55:37;;;;;;;8.80;2.47;;;18.50;55.50;;;;;;10410185;28;20037;-52
2022/05/09 11:00:55;;;;;;;6.93;2.35;;;18.50;55.90;;;;;;10424011;28;20037;-51
2022/05/09 11:06:08;;;;;;;5.88;2.35;;;18.60;55.80;;;;;;10427754;28;20034;-53
2022/05/09 11:11:38;;;;;;;10.05;2.55;;;18.60;55.60;;;;;;10417145;28;20377;-52
2022/05/09 11:17:04;;;;;;;7.40;2.28;;;18.70;55.30;;;;;;10418019;28;20037;-53
2022/05/09 11:22:31;;;;;;;8.43;2.58;;;18.70;55.10;;;;;;10407179;28;20049;-55
2022/05/09 11:28:08;;;;;;;8.18;2.15;;;18.80;54.60;;;;;;10405803;28;20034;-55
2022/05/09 11:33:42;;;;;;;5.78;2.15;;;18.80;55.30;;;;;;10417147;28;20180;-55
2022/05/09 11:39:12;;;;;;;7.05;2.55;;;18.80;54.60;;;;;;10417137;28;20037;-54
2022/05/09 11:44:21;;;;;;;5.20;1.90;;;18.80;54.70;;;;;;10417636;28;20583;-53
2022/05/09 11:49:32;;;;;;;6.72;2.92;;;18.80;54.60;;;;;;10431657;28;20041;-52
2022/05/09 11:54:45;;;;;;;4.80;1.83;;;18.90;54.50;;;;;;10406493;28;20103;-52
2022/05/09 11:59:54;;;;;;;4.70;1.80;;;18.90;54.70;;;;;;10415422;28;20061;-52
2022/05/09 12:04:54;;;;;;;5.30;2.20;;;18.90;54.80;;;;;;10416203;28;20029;-54
2022/05/09 12:10:01;;;;;;;9.93;2.35;;;18.90;54.80;;;;;;10414534;28;20121;-53
2022/05/09 12:15:04;;;;;;;5.10;1.65;;;18.90;54.60;;;;;;10415759;28;20413;-52
2022/05/09 12:20:26;;;;;;;3.60;1.85;;;18.90;54.70;;;;;;10416022;28;20386;-52
2022/05/09 12:25:36;;;;;;;4.70;2.45;;;19.00;54.80;;;;;;10402138;28;20510;-51
2022/05/09 12:30:54;;;;;;;7.40;2.15;;;19.00;54.50;;;;;;10414808;28;20053;-53
2022/05/09 12:36:26;;;;;;;4.13;2.22;;;19.00;54.60;;;;;;10414990;28;20028;-54
2022/05/09 12:41:53;;;;;;;5.45;2.13;;;19.00;54.60;;;;;;10412051;28;20128;-54
2022/05/09 12:47:01;;;;;;;5.47;2.25;;;19.10;55.20;;;;;;10413334;28;20037;-53
2022/05/09 12:52:03;;;;;;;8.40;2.35;;;19.00;55.10;;;;;;10414244;28;20086;-54
2022/05/09 12:57:05;;;;;;;5.47;2.30;;;19.10;55.10;;;;;;10412660;28;20030;-55
2022/05/09 13:02:06;;;;;;;5.13;1.90;;;19.10;55.00;;;;;;10429643;28;20100;-54
2022/05/09 13:07:08;;;;;;;4.25;1.98;;;19.20;55.00;;;;;;10414158;28;20470;-56
2022/05/09 13:12:34;;;;;;;5.78;1.60;;;19.30;55.00;;;;;;10412181;28;20363;-56
2022/05/09 13:17:59;;;;;;;19.27;2.90;;;19.30;55.30;;;;;;10413839;28;20081;-56
2022/05/09 13:23:08;;;;;;;6.20;2.42;;;19.50;56.70;;;;;;10413410;28;20033;-56
2022/05/09 13:28:13;;;;;;;6.03;2.10;;;19.60;56.40;;;;;;10412457;28;20029;-54
2022/05/09 13:33:21;;;;;;;6.30;3.20;;;19.60;55.80;;;;;;10412825;28;20385;-56
2022/05/09 13:38:40;;;;;;;6.82;2.00;;;19.70;56.90;;;;;;10411878;28;20021;-54
2022/05/09 13:43:47;;;;;;;3.33;1.90;;;19.70;55.00;;;;;;10428063;28;20454;-53
2022/05/09 13:48:56;;;;;;;4.50;2.08;;;19.70;55.80;;;;;;10427571;28;20034;-53
2022/05/09 13:54:01;;;;;;;;;;;19.70;55.90;;;;;;10403557;28;20064;-55
2022/05/09 13:59:08;;;;;;;7.82;3.05;;;19.80;56.70;;;;;;10410994;28;19916;-56
2022/05/09 14:04:15;;;;;;;457.58;59.20;;;20.00;56.70;;;;;;10411168;28;20040;-54
2022/05/09 14:09:23;;;;;;;194.50;27.85;;;20.10;56.80;;;;;;10410746;28;20474;-53
2022/05/09 14:15:11;;;;;;;124.53;19.10;;;20.30;55.70;;;;;;10412185;28;20029;-52
2022/05/09 14:20:52;;;;;;;100.60;17.77;;;20.20;56.40;;;;;;10406710;28;20045;-54
2022/05/09 14:31:28;;;;;;;68.38;12.30;;;20.30;58.00;;;;;;10410504;28;19917;-54
2022/05/09 14:36:36;;;;;;;53.47;10.90;;;20.30;57.60;;;;;;10410459;28;20445;-55
2022/05/09 14:41:37;;;;;;;52.53;9.80;;;20.50;57.80;;;;;;10415698;28;20021;-54
2022/05/09 14:46:52;;;;;;;55.55;9.15;;;20.40;56.90;;;;;;10419203;28;20057;-56
2022/05/09 14:52:05;;;;;;;35.13;8.23;;;20.30;56.90;;;;;;10410086;28;20037;-54
2022/05/09 14:57:25;;;;;;;34.67;8.00;;;20.30;56.90;;;;;;10417671;28;20056;-56
2022/05/09 15:02:30;;;;;;;38.45;9.15;;;20.30;56.50;;;;;;10417729;28;20393;-56
2022/05/09 15:07:33;;;;;;;31.95;7.13;;;19.90;56.50;;;;;;10409774;28;20030;-56
2022/05/09 15:12:34;;;;;;;33.88;7.05;;;19.80;56.90;;;;;;10417120;28;20397;-54
2022/05/09 15:17:34;;;;;;;22.58;5.78;;;19.70;57.60;;;;;;10406019;28;20116;-53
2022/05/09 15:22:36;;;;;;;31.63;7.38;;;19.70;57.50;;;;;;10405579;28;20112;-54
2022/05/09 15:27:39;;;;;;;23.73;6.57;;;19.70;56.90;;;;;;10417455;28;20262;-56
2022/05/09 15:32:40;;;;;;;16.17;5.00;;;19.60;56.70;;;;;;10421875;28;20045;-52
2022/05/09 15:37:41;;;;;;;19.60;5.13;;;19.60;56.80;;;;;;10417696;28;20125;-53
2022/05/09 15:42:42;;;;;;;16.00;5.18;;;19.60;56.80;;;;;;10417727;28;20064;-55
2022/05/09 15:47:46;;;;;;;12.68;6.20;;;19.80;55.80;;;;;;10417204;28;20037;-53
2022/05/09 15:52:46;;;;;;;14.70;6.80;;;19.90;53.10;;;;;;10415422;28;20034;-53
2022/05/09 15:57:51;;;;;;;20.40;6.75;;;20.00;51.80;;;;;;10415928;28;20465;-52
2022/05/09 16:02:52;;;;;;;10.82;7.60;;;20.00;51.70;;;;;;10417086;28;20581;-56
2022/05/09 16:13:13;;;;;;;9.93;5.85;;;20.00;53.30;;;;;;10416802;28;20038;-52
2022/05/09 16:18:28;;;;;;;16.15;7.10;;;19.90;52.50;;;;;;10414957;28;20413;-55
2022/05/09 16:23:30;;;;;;;9.68;4.63;;;19.80;51.90;;;;;;10402978;28;20590;-55
2022/05/09 16:28:31;;;;;;;8.43;6.28;;;19.70;52.60;;;;;;10415644;28;20667;-54
2022/05/09 16:33:31;;;;;;;9.88;5.47;;;19.80;52.10;;;;;;10415713;28;20037;-53
2022/05/09 16:38:33;;;;;;;10.20;5.25;;;19.70;51.90;;;;;;10415389;28;20115;-54
2022/05/09 16:43:35;;;;;;;13.25;4.85;;;19.70;53.20;;;;;;10415430;28;20021;-55
2022/05/09 16:48:35;;;;;;;12.20;5.53;;;19.70;53.70;;;;;;10430240;28;20029;-56
2022/05/09 16:53:37;;;;;;;9.20;5.60;;;19.80;54.00;;;;;;10412853;28;20104;-55
2022/05/09 16:58:39;;;;;;;12.02;6.70;;;19.60;52.90;;;;;;10429576;28;20029;-54
2022/05/09 17:03:40;;;;;;;9.70;5.22;;;19.60;52.60;;;;;;10417991;28;20029;-52
2022/05/09 17:08:40;;;;;;;7.85;4.72;;;19.60;52.20;;;;;;10414204;28;20061;-51
2022/05/09 17:13:41;;;;;;;6.45;4.05;;;19.60;52.00;;;;;;10414242;28;20033;-51
2022/05/09 17:18:42;;;;;;;9.63;3.50;;;19.50;54.80;;;;;;10429160;28;20108;-53
2022/05/09 17:23:42;;;;;;;9.57;4.82;;;19.40;55.40;;;;;;10413286;28;20535;-52
2022/05/09 17:28:43;;;;;;;6.68;4.85;;;19.40;52.50;;;;;;10413239;28;20080;-54
2022/05/09 17:33:44;;;;;;;5.82;3.85;;;19.50;52.40;;;;;;10413759;28;20033;-53
2022/05/09 17:38:48;;;;;;;8.38;4.15;;;19.40;52.60;;;;;;10412561;28;20049;-52
2022/05/09 17:43:50;;;;;;;6.43;2.97;;;19.40;53.70;;;;;;10410149;28;20030;-53
2022/05/09 17:48:51;;;;;;;10.77;5.20;;;19.50;54.10;;;;;;10411213;28;20119;-55
2022/05/09 17:53:51;;;;;;;7.10;3.83;;;19.40;54.00;;;;;;10403350;28;20513;-52
2022/05/09 17:58:53;;;;;;;6.38;3.13;;;19.50;54.60;;;;;;10407354;28;20482;-51
2022/05/09 18:03:53;;;;;;;10.48;3.35;;;19.40;55.40;;;;;;10411168;28;20084;-52
2022/05/09 18:08:55;;;;;;;7.45;3.33;;;19.30;55.60;;;;;;10409587;28;20115;-54
2022/05/09 18:13:56;;;;;;;6.45;3.50;;;19.30;55.80;;;;;;10411790;28;20031;-54
2022/05/09 18:19:01;;;;;;;5.65;3.00;;;19.30;55.90;;;;;;10419532;28;20532;-51
2022/05/09 18:24:23;;;;;;;5.72;2.78;;;19.20;55.90;;;;;;10408373;28;20037;-52
2022/05/09 18:29:24;;;;;;;5.35;3.00;;;19.30;56.00;;;;;;10418914;28;20072;-52
2022/05/09 18:34:34;;;;;;;4.57;2.53;;;19.20;56.00;;;;;;10417098;28;20145;-52
2022/05/09 18:39:35;;;;;;;6.13;2.55;;;19.20;56.00;;;;;;10417039;28;20036;-51
2022/05/09 18:44:36;;;;;;;5.20;2.80;;;19.30;56.10;;;;;;10416261;28;20108;-50
2022/05/09 18:54:56;;;;;;;8.15;3.38;;;19.30;56.10;;;;;;10414386;28;20038;-54
2022/05/09 18:59:56;;;;;;;7.63;3.05;;;19.20;56.60;;;;;;10415826;28;20104;-54
2022/05/09 19:04:57;;;;;;;6.70;3.70;;;19.20;56.60;;;;;;10416996;28;20092;-55
2022/05/09 19:10:05;;;;;;;5.05;2.53;;;19.30;57.00;;;;;;10417288;28;20101;-55
2022/05/09 19:15:08;;;;;;;3.80;2.42;;;19.30;57.00;;;;;;10413836;28;20064;-54
2022/05/09 19:20:10;;;;;;;7.47;2.72;;;19.20;56.80;;;;;;10417186;28;20030;-53
2022/05/09 19:25:11;;;;;;;5.15;3.00;;;19.20;56.90;;;;;;10427603;28;20064;-56
2022/05/09 19:30:16;;;;;;;5.72;2.88;;;19.30;57.00;;;;;;10406296;28;20050;-54
2022/05/09 19:35:24;;;;;;;4.72;2.58;;;19.30;57.30;;;;;;10414839;28;20387;-55
2022/05/09 19:40:26;;;;;;;6.22;3.13;;;19.20;57.10;;;;;;10413012;28;20100;-54
2022/05/09 19:45:49;;;;;;;4.35;2.70;;;19.30;57.90;;;;;;10415414;28;20474;-53
2022/05/09 19:50:51;;;;;;;5.97;3.20;;;19.30;58.10;;;;;;10412894;28;20430;-55
2022/05/09 19:55:52;;;;;;;8.60;3.58;;;19.30;58.00;;;;;;10398399;28;20048;-55
2022/05/09 20:00:53;;;;;;;4.68;2.60;;;19.30;57.70;;;;;;10415148;28;20022;-55
2022/05/09 20:05:53;;;;;;;11.15;3.20;;;19.30;58.20;;;;;;10410510;28;20402;-54
2022/05/09 20:10:55;;;;;;;6.18;3.35;;;19.30;58.30;;;;;;10413562;28;20471;-54
2022/05/09 20:15:57;;;;;;;5.97;3.08;;;19.30;58.40;;;;;;10412630;28;20486;-57
2022/05/09 20:20:57;;;;;;;5.55;3.08;;;19.30;58.40;;;;;;10417963;28;20033;-55
2022/05/09 20:31:17;;;;;;;5.10;2.93;;;19.30;58.40;;;;;;10412793;28;20054;-54
2022/05/09 20:36:25;;;;;;;6.03;2.53;;;19.30;58.40;;;;;;10409692;28;20117;-54
2022/05/09 20:41:25;;;;;;;7.15;3.50;;;19.30;58.30;;;;;;10415775;28;20108;-53
2022/05/09 20:46:26;;;;;;;5.85;2.90;;;19.30;58.30;;;;;;10415318;28;20113;-53
2022/05/09 20:51:27;;;;;;;6.97;2.88;;;19.20;58.40;;;;;;10405781;28;20065;-53
2022/05/09 20:56:29;;;;;;;5.35;2.38;;;19.20;58.40;;;;;;10413135;28;20029;-53
2022/05/09 21:01:29;;;;;;;4.68;3.08;;;19.20;58.50;;;;;;10430047;28;20120;-53
2022/05/09 21:06:30;;;;;;;4.32;2.10;;;19.20;58.40;;;;;;10429743;28;20137;-51
2022/05/09 21:11:32;;;;;;;3.80;2.45;;;19.20;58.40;;;;;;10413007;28;20033;-51
2022/05/09 21:16:34;;;;;;;5.75;2.58;;;19.20;58.50;;;;;;10414173;28;20462;-53
2022/05/09 21:21:35;;;;;;;5.00;2.50;;;19.20;58.50;;;;;;10407858;28;20032;-53
2022/05/09 21:26:35;;;;;;;5.05;3.15;;;19.10;58.40;;;;;;10405923;28;20042;-55
2022/05/09 21:31:36;;;;;;;4.82;2.72;;;19.20;58.50;;;;;;10413605;28;20076;-53
2022/05/09 21:36:40;;;;;;;7.22;3.47;;;19.10;58.40;;;;;;10413539;28;20120;-54
2022/05/09 21:41:41;;;;;;;4.45;2.65;;;19.20;58.50;;;;;;10412195;28;20029;-52
2022/05/09 21:46:42;;;;;;;4.57;2.88;;;19.10;58.40;;;;;;10412128;28;20428;-53
2022/05/09 21:51:45;;;;;;;4.13;2.90;;;19.10;58.50;;;;;;10412059;28;20398;-55
2022/05/09 21:56:45;;;;;;;6.35;2.70;;;19.10;58.50;;;;;;10411907;28;20053;-54
2022/05/09 22:01:46;;;;;;;4.93;2.65;;;19.10;58.50;;;;;;10411709;28;20505;-53
2022/05/09 22:06:51;;;;;;;5.32;2.45;;;19.10;58.50;;;;;;10412813;28;20109;-52
2022/05/09 22:11:54;;;;;;;4.35;2.75;;;19.10;58.40;;;;;;10412996;28;20025;-52
2022/05/09 22:16:55;;;;;;;7.78;2.90;;;19.10;58.40;;;;;;10412328;28;20065;-54
2022/05/09 22:22:10;;;;;;;5.45;2.50;;;19.10;58.50;;;;;;10412895;28;20068;-50
2022/05/09 22:27:11;;;;;;;5.72;2.85;;;19.10;58.40;;;;;;10411020;28;20075;-53
2022/05/09 22:32:16;;;;;;;5.80;2.70;;;19.10;58.40;;;;;;10412222;28;20046;-51
2022/05/09 22:37:42;;;;;;;8.90;3.50;;;19.10;58.50;;;;;;10412178;28;20381;-53
2022/05/09 22:42:44;;;;;;;4.03;2.40;;;19.10;58.50;;;;;;10427005;28;20037;-53
2022/05/09 22:47:47;;;;;;;4.22;2.45;;;19.10;58.50;;;;;;10410983;28;20036;-51
2022/05/09 22:52:48;;;;;;;5.72;2.47;;;19.10;58.50;;;;;;10407592;28;20042;-53
2022/05/09 22:57:57;;;;;;;5.90;2.63;;;19.10;58.50;;;;;;10412299;28;20474;-53
2022/05/09 23:03:03;;;;;;;3.35;2.60;;;19.10;58.40;;;;;;10417797;28;20033;-53
2022/05/09 23:08:05;;;;;;;4.50;3.10;;;19.00;58.40;;;;;;10419320;28;20381;-55
2022/05/09 23:13:31;;;;;;;3.83;2.90;;;19.00;58.40;;;;;;10419251;28;20033;-52
2022/05/09 23:18:31;;;;;;;3.72;2.28;;;19.00;58.30;;;;;;10418604;28;20083;-53
2022/05/09 23:23:32;;;;;;;3.38;2.90;;;19.00;58.40;;;;;;10418810;28;20037;-52
2022/05/09 23:28:33;;;;;;;3.35;2.60;;;19.00;58.40;;;;;;10416945;28;20631;-50
2022/05/09 23:33:38;;;;;;;6.03;2.75;;;19.00;58.40;;;;;;10417288;28;20037;-54
2022/05/09 23:38:40;;;;;;;4.35;2.50;;;19.00;58.50;;;;;;10416722;28;20021;-54
2022/05/09 23:43:46;;;;;;;5.07;3.83;;;19.00;58.50;;;;;;10417927;28;20029;-53
2022/05/09 23:48:52;;;;;;;5.63;3.33;;;19.00;58.50;;;;;;10409425;28;20825;-53
2022/05/09 23:53:52;;;;;;;4.90;2.70;;;19.00;58.50;;;;;;10410046;28;20044;-51
2022/05/09 23:58:53;;;;;;;4.00;3.20;;;19.00;58.50;;;;;;10416982;28;20371;-52
